createdAt,value
2018-09-24T00:00:15.432Z,101214.11
2018-09-24T00:03:19.566Z,101223.75
2018-09-24T00:06:23.898Z,101225.59
2018-09-24T00:09:27.957Z,101231.83
2018-09-24T00:12:32.001Z,101227.98
2018-09-24T00:15:36.047Z,101240.61
2018-09-24T00:18:40.269Z,101245.52
2018-09-24T00:21:44.642Z,101248.29
2018-09-24T00:24:48.691Z,101243.84
2018-09-24T00:27:52.727Z,101240.94
2018-09-24T00:30:56.767Z,101257.09
2018-09-24T00:34:01.173Z,101263.33
2018-09-24T00:37:05.585Z,101268.06
2018-09-24T00:40:09.617Z,101270.67
2018-09-24T00:43:13.703Z,101273.40
2018-09-24T00:46:17.866Z,101274.85
2018-09-24T00:49:21.846Z,101277.78
2018-09-24T00:52:25.872Z,101286.80
2018-09-24T00:55:30.004Z,101287.46
2018-09-24T00:58:33.993Z,101290.47
2018-09-24T01:01:38.011Z,101291.20
2018-09-24T01:04:42.042Z,101295.66
2018-09-24T01:07:46.136Z,101303.71
2018-09-24T01:10:50.172Z,101296.39
2018-09-24T01:13:54.188Z,101304.79
2018-09-24T01:16:58.844Z,101314.52
2018-09-24T01:20:03.256Z,101320.02
2018-09-24T01:23:07.249Z,101323.20
2018-09-24T01:26:11.275Z,101330.98
2018-09-24T01:29:15.267Z,101330.94
2018-09-24T01:32:19.322Z,101332.95
2018-09-24T01:35:23.356Z,101338.44
2018-09-24T01:38:27.387Z,101338.44
2018-09-24T01:41:31.454Z,101359.02
2018-09-24T01:44:35.628Z,101360.19
2018-09-24T01:47:39.635Z,101360.64
2018-09-24T01:50:43.643Z,101363.88
2018-09-24T01:53:47.674Z,101369.78
2018-09-24T01:56:51.720Z,101371.45
2018-09-24T01:59:57.777Z,101374.20
2018-09-24T02:03:01.824Z,101380.22
2018-09-24T02:06:06.514Z,101385.27
2018-09-24T02:09:10.552Z,101388.39
2018-09-24T02:12:14.611Z,101390.73
2018-09-24T02:15:24.079Z,101407.44
2018-09-24T02:18:28.018Z,101410.05
2018-09-24T02:21:32.057Z,101415.72
2018-09-24T02:24:36.019Z,101419.45
2018-09-24T02:27:40.016Z,101424.28
2018-09-24T02:30:44.017Z,101419.61
2018-09-24T02:33:48.035Z,101418.07
2018-09-24T02:36:52.015Z,101432.27
2018-09-24T02:39:56.011Z,101436.05
2018-09-24T02:43:00.531Z,101450.19
2018-09-24T02:46:04.623Z,101454.60
2018-09-24T02:49:08.639Z,101457.66
2018-09-24T02:52:12.973Z,101467.20
2018-09-24T02:55:18.201Z,101469.38
2018-09-24T02:58:22.324Z,101472.27
2018-09-24T03:01:31.279Z,101482.59
2018-09-24T03:04:35.253Z,101476.66
2018-09-24T03:07:39.223Z,101486.46
2018-09-24T03:10:43.419Z,101486.06
2018-09-24T03:13:47.346Z,101472.27
2018-09-24T03:16:51.452Z,101479.81
2018-09-24T03:19:55.611Z,101492.91
2018-09-24T03:22:59.567Z,101493.39
2018-09-24T03:26:03.543Z,101498.95
2018-09-24T03:29:07.843Z,101499.88
2018-09-24T03:32:11.795Z,101504.03
2018-09-24T03:35:15.769Z,101502.95
2018-09-24T03:38:19.753Z,101505.70
2018-09-24T03:41:24.239Z,101508.94
2018-09-24T03:44:28.192Z,101508.41
2018-09-24T03:47:35.651Z,101518.05
2018-09-24T03:50:39.587Z,101527.70
2018-09-24T03:53:43.530Z,101530.50
2018-09-24T03:56:47.479Z,101534.73
2018-09-24T03:59:51.433Z,101539.36
2018-09-24T04:02:55.545Z,101555.81
2018-09-24T04:06:04.799Z,101555.03
2018-09-24T04:09:14.468Z,101565.48
2018-09-24T04:12:23.908Z,101560.94
2018-09-24T04:15:33.639Z,101560.35
2018-09-24T04:18:42.866Z,101556.55
2018-09-24T04:21:52.027Z,101557.83
2018-09-24T04:25:01.281Z,101559.43
2018-09-24T04:28:11.000Z,101565.39
2018-09-24T04:31:20.367Z,101567.02
2018-09-24T04:34:29.778Z,101573.80
2018-09-24T04:37:39.206Z,101567.84
2018-09-24T04:40:49.117Z,101582.03
2018-09-24T04:43:58.423Z,101583.27
2018-09-24T04:47:07.940Z,101602.94
2018-09-24T04:50:17.411Z,101603.45
2018-09-24T04:53:26.952Z,101610.72
2018-09-24T04:56:36.413Z,101623.00
2018-09-24T04:59:45.779Z,101630.39
2018-09-24T05:02:55.111Z,101638.50
2018-09-24T05:06:04.376Z,101638.61
2018-09-24T05:09:14.111Z,101650.84
2018-09-24T05:12:23.492Z,101634.23
2018-09-24T05:15:32.692Z,101638.22
2018-09-24T05:18:41.975Z,101645.81
2018-09-24T05:21:51.240Z,101642.82
2018-09-24T05:25:00.599Z,101651.70
2018-09-24T05:28:09.910Z,101654.73
2018-09-24T05:31:19.118Z,101655.53
2018-09-24T05:34:28.343Z,101664.89
2018-09-24T05:37:37.807Z,101684.44
2018-09-24T05:40:47.033Z,101676.48
2018-09-24T05:43:56.232Z,101681.16
2018-09-24T05:47:05.535Z,101688.88
2018-09-24T05:50:14.883Z,101691.88
2018-09-24T05:53:24.091Z,101704.23
2018-09-24T05:56:33.459Z,101743.26
2018-09-24T05:59:42.824Z,101728.62
2018-09-24T06:02:52.390Z,101736.22
2018-09-24T06:06:01.648Z,101726.62
2018-09-24T06:09:13.546Z,101727.95
2018-09-24T06:12:22.869Z,101719.14
2018-09-24T06:15:32.403Z,101729.66
2018-09-24T06:18:41.832Z,101724.70
2018-09-24T06:21:51.065Z,101733.30
2018-09-24T06:25:00.288Z,101735.89
2018-09-24T06:28:09.452Z,101743.17
2018-09-24T06:31:19.267Z,101748.87
2018-09-24T06:34:28.503Z,101756.07
2018-09-24T06:37:37.735Z,101756.28
2018-09-24T06:40:47.123Z,101756.57
2018-09-24T06:43:56.655Z,101764.66
2018-09-24T06:47:05.854Z,101776.53
2018-09-24T06:50:15.100Z,101767.58
2018-09-24T06:53:24.301Z,101770.33
2018-09-24T06:56:33.427Z,101775.66
2018-09-24T06:59:42.705Z,101786.74
2018-09-24T07:02:52.039Z,101796.91
2018-09-24T07:06:01.689Z,101797.73
2018-09-24T07:09:13.392Z,101804.87
2018-09-24T07:12:22.586Z,101807.67
2018-09-24T07:15:31.810Z,101820.23
2018-09-24T07:18:40.995Z,101819.35
2018-09-24T07:21:59.731Z,101835.28
2018-09-24T07:25:09.400Z,101837.72
2018-09-24T07:28:18.779Z,101838.84
2018-09-24T07:31:28.315Z,101847.80
2018-09-24T07:34:37.582Z,101861.06
2018-09-24T07:37:46.796Z,101859.25
2018-09-24T07:40:56.003Z,101871.66
2018-09-24T07:44:05.374Z,101878.31
2018-09-24T07:47:14.591Z,101877.42
2018-09-24T07:50:23.818Z,101894.72
2018-09-24T07:53:33.169Z,101895.74
2018-09-24T07:56:42.747Z,101905.87
2018-09-24T07:59:51.991Z,101913.96
2018-09-24T08:03:01.314Z,101920.64
2018-09-24T08:06:10.870Z,101930.99
2018-09-24T08:09:20.900Z,101931.61
2018-09-24T08:12:30.157Z,101934.58
2018-09-24T08:15:39.685Z,101940.31
2018-09-24T08:18:49.164Z,101936.28
2018-09-24T08:21:58.581Z,101939.91
2018-09-24T08:25:08.003Z,101939.98
2018-09-24T08:28:17.321Z,101958.95
2018-09-24T08:31:26.629Z,101958.81
2018-09-24T08:34:35.990Z,101964.01
2018-09-24T08:37:45.860Z,101970.03
2018-09-24T08:40:55.094Z,101984.20
2018-09-24T08:44:04.422Z,101995.22
2018-09-24T08:47:13.822Z,102009.81
2018-09-24T08:50:23.062Z,102012.86
2018-09-24T08:53:32.258Z,102017.20
2018-09-24T08:56:41.684Z,102016.87
2018-09-24T08:59:51.251Z,102010.64
2018-09-24T09:03:00.874Z,102013.00
2018-09-24T09:06:10.195Z,102019.77
2018-09-24T09:09:19.610Z,102022.23
2018-09-24T09:12:28.904Z,102033.88
2018-09-24T09:15:38.111Z,102030.27
2018-09-24T09:18:47.472Z,102036.53
2018-09-24T09:21:56.773Z,102022.29
2018-09-24T09:25:06.198Z,102020.73
2018-09-24T09:28:15.508Z,102021.05
2018-09-24T09:31:24.826Z,102031.34
2018-09-24T09:34:34.076Z,102021.23
2018-09-24T09:37:43.491Z,102030.75
2018-09-24T09:40:52.797Z,102040.02
2018-09-24T09:44:02.422Z,102043.05
2018-09-24T09:47:11.815Z,102042.55
2018-09-24T09:50:21.052Z,102047.14
2018-09-24T09:53:30.412Z,102057.36
2018-09-24T09:56:40.310Z,102056.98
2018-09-24T09:59:49.696Z,102056.30
2018-09-24T10:02:58.970Z,102065.99
2018-09-24T10:06:08.282Z,102069.13
2018-09-24T10:09:17.668Z,102078.14
2018-09-24T10:12:27.046Z,102081.06
2018-09-24T10:15:36.258Z,102084.06
2018-09-24T10:18:45.542Z,102087.47
2018-09-24T10:21:54.827Z,102090.83
2018-09-24T10:25:04.065Z,102083.63
2018-09-24T10:28:13.447Z,102088.31
2018-09-24T10:31:22.898Z,102086.36
2018-09-24T10:34:32.395Z,102089.55
2018-09-24T10:37:41.763Z,102100.01
2018-09-24T10:40:51.142Z,102096.59
2018-09-24T10:44:00.330Z,102108.28
2018-09-24T10:47:09.966Z,102107.41
2018-09-24T10:50:19.311Z,102097.09
2018-09-24T10:53:28.454Z,102109.30
2018-09-24T10:56:37.780Z,102105.27
2018-09-24T10:59:47.652Z,102109.95
2018-09-24T11:02:56.937Z,102121.41
2018-09-24T11:06:06.459Z,102112.80
2018-09-24T11:09:15.810Z,102117.36
2018-09-24T11:12:25.144Z,102123.39
2018-09-24T11:15:34.359Z,102134.71
2018-09-24T11:18:43.726Z,102143.48
2018-09-24T11:21:52.987Z,102140.87
2018-09-24T11:25:02.269Z,102178.24
2018-09-24T11:28:11.595Z,102185.86
2018-09-24T11:31:20.839Z,102181.38
2018-09-24T11:34:30.282Z,102188.93
2018-09-24T11:37:39.798Z,102195.35
2018-09-24T11:40:49.149Z,102192.13
2018-09-24T11:43:58.467Z,102200.16
2018-09-24T11:47:07.689Z,102202.79
2018-09-24T11:50:17.053Z,102202.14
2018-09-24T11:53:26.312Z,102206.05
2018-09-24T11:56:35.532Z,102206.93
2018-09-24T11:59:44.776Z,102201.88
2018-09-24T12:02:53.987Z,102204.77
2018-09-24T12:06:03.346Z,102203.37
2018-09-24T12:09:14.659Z,102197.11
2018-09-24T12:12:23.852Z,102191.75
2018-09-24T12:15:33.254Z,102189.08
2018-09-24T12:18:42.625Z,102184.59
2018-09-24T12:21:52.082Z,102170.72
2018-09-24T12:25:01.561Z,102176.13
2018-09-24T12:28:11.171Z,102176.59
2018-09-24T12:31:20.616Z,102184.76
2018-09-24T12:34:29.947Z,102186.94
2018-09-24T12:37:39.535Z,102186.19
2018-09-24T12:40:49.151Z,102187.20
2018-09-24T12:43:58.364Z,102184.75
2018-09-24T12:47:08.051Z,102178.09
2018-09-24T12:50:17.574Z,102188.81
2018-09-24T12:53:27.011Z,102190.81
2018-09-24T12:56:36.444Z,102197.24
2018-09-24T12:59:45.635Z,102191.30
2018-09-24T13:02:54.883Z,102203.27
2018-09-24T13:06:04.261Z,102199.06
2018-09-24T13:09:13.510Z,102198.73
2018-09-24T13:12:22.932Z,102205.95
2018-09-24T13:15:32.305Z,102220.30
2018-09-24T13:18:41.757Z,102214.36
2018-09-24T13:21:50.937Z,102203.69
2018-09-24T13:25:00.278Z,102199.67
2018-09-24T13:28:09.598Z,102192.73
2018-09-24T13:31:18.787Z,102202.80
2018-09-24T13:34:32.392Z,102176.86
2018-09-24T13:37:41.778Z,102196.25
2018-09-24T13:40:51.167Z,102220.59
2018-09-24T13:44:00.669Z,102228.95
2018-09-24T13:47:10.282Z,102242.30
2018-09-24T13:50:19.615Z,102232.47
2018-09-24T13:53:29.025Z,102234.19
2018-09-24T13:56:38.436Z,102229.17
2018-09-24T13:59:47.636Z,102224.16
2018-09-24T14:02:57.090Z,102226.98
2018-09-24T14:06:07.018Z,102237.06
2018-09-24T14:09:16.242Z,102232.33
2018-09-24T14:12:25.622Z,102240.03
2018-09-24T14:15:34.927Z,102239.41
2018-09-24T14:18:44.430Z,102235.94
2018-09-24T14:21:53.943Z,102237.77
2018-09-24T14:25:03.351Z,102231.12
2018-09-24T14:28:13.034Z,102236.31
2018-09-24T14:31:22.385Z,102237.91
2018-09-24T14:34:32.037Z,102245.20
2018-09-24T14:37:41.368Z,102245.52
2018-09-24T14:40:50.779Z,102246.49
2018-09-24T14:44:00.091Z,102253.25
2018-09-24T14:47:09.464Z,102260.73
2018-09-24T14:50:19.142Z,102260.91
2018-09-24T14:53:28.476Z,102271.86
2018-09-24T14:56:37.778Z,102276.63
2018-09-24T14:59:47.123Z,102282.23
2018-09-24T15:02:58.200Z,102273.03
2018-09-24T15:06:07.596Z,102279.05
2018-09-24T15:09:16.837Z,102289.50
2018-09-24T15:12:26.102Z,102273.75
2018-09-24T15:15:35.603Z,102282.84
2018-09-24T15:18:44.860Z,102275.57
2018-09-24T15:21:54.050Z,102287.83
2018-09-24T15:25:03.370Z,102283.09
2018-09-24T15:28:13.211Z,102292.68
2018-09-24T15:31:22.617Z,102289.56
2018-09-24T15:34:32.117Z,102295.20
2018-09-24T15:37:41.459Z,102298.09
2018-09-24T15:40:50.824Z,102294.50
2018-09-24T15:44:00.255Z,102296.94
2018-09-24T15:47:09.542Z,102302.44
2018-09-24T15:50:18.944Z,102302.92
2018-09-24T15:53:28.164Z,102303.45
2018-09-24T15:56:37.738Z,102314.96
2018-09-24T15:59:47.055Z,102316.81
2018-09-24T16:02:56.377Z,102307.42
2018-09-24T16:06:05.791Z,102311.08
2018-09-24T16:09:15.042Z,102316.78
2018-09-24T16:12:24.523Z,102311.16
2018-09-24T16:15:33.762Z,102319.34
2018-09-24T16:18:43.076Z,102313.03
2018-09-24T16:21:52.594Z,102327.27
2018-09-24T16:25:01.893Z,102329.11
2018-09-24T16:28:11.535Z,102333.59
2018-09-24T16:31:21.115Z,102340.41
2018-09-24T16:34:30.710Z,102347.04
2018-09-24T16:37:40.067Z,102344.11
2018-09-24T16:40:49.343Z,102344.11
2018-09-24T16:43:58.726Z,102345.16
2018-09-24T16:47:08.211Z,102351.61
2018-09-24T16:50:17.956Z,102351.64
2018-09-24T16:53:27.425Z,102358.19
2018-09-24T16:56:36.839Z,102356.25
2018-09-24T16:59:46.395Z,102354.97
2018-09-24T17:02:55.754Z,102355.00
2018-09-24T17:06:12.869Z,102357.54
2018-09-24T17:09:22.334Z,102363.17
2018-09-24T17:12:31.658Z,102369.62
2018-09-24T17:15:40.979Z,102366.30
2018-09-24T17:18:50.273Z,102375.75
2018-09-24T17:21:59.555Z,102374.02
2018-09-24T17:25:08.957Z,102371.61
2018-09-24T17:28:18.250Z,102384.41
2018-09-24T17:31:27.793Z,102386.19
2018-09-24T17:34:37.171Z,102384.27
2018-09-24T17:37:46.499Z,102398.39
2018-09-24T17:40:55.763Z,102400.22
2018-09-24T17:44:05.176Z,102401.50
2018-09-24T17:47:14.412Z,102401.94
2018-09-24T17:50:23.783Z,102412.63
2018-09-24T17:53:33.126Z,102419.64
2018-09-24T17:56:42.485Z,102426.09
2018-09-24T17:59:51.852Z,102433.02
2018-09-24T18:03:01.392Z,102435.58
2018-09-24T18:06:11.125Z,102438.77
2018-09-24T18:09:20.628Z,102440.92
2018-09-24T18:12:30.207Z,102442.75
2018-09-24T18:15:39.503Z,102451.22
2018-09-24T18:18:48.728Z,102455.17
2018-09-24T18:21:58.024Z,102463.77
2018-09-24T18:25:07.368Z,102470.58
2018-09-24T18:28:16.602Z,102477.01
2018-09-24T18:31:25.918Z,102484.34
2018-09-24T18:34:35.333Z,102492.11
2018-09-24T18:37:44.512Z,102496.81
2018-09-24T18:40:54.025Z,102500.70
2018-09-24T18:44:03.267Z,102500.73
2018-09-24T18:47:12.871Z,102499.08
2018-09-24T18:50:22.202Z,102508.45
2018-09-24T18:53:31.415Z,102505.09
2018-09-24T18:56:40.705Z,102503.83
2018-09-24T18:59:49.932Z,102511.08
2018-09-24T19:02:59.207Z,102522.20
2018-09-24T19:06:08.510Z,102524.79
2018-09-24T19:09:17.983Z,102526.92
2018-09-24T19:12:27.656Z,102524.81
2018-09-24T19:15:37.111Z,102532.57
2018-09-24T19:18:46.706Z,102534.32
2018-09-24T19:21:55.954Z,102543.33
2018-09-24T19:25:05.368Z,102544.59
2018-09-24T19:28:14.819Z,102554.91
2018-09-24T19:31:24.185Z,102555.77
2018-09-24T19:34:33.440Z,102554.95
2018-09-24T19:37:43.274Z,102560.09
2018-09-24T19:40:52.634Z,102566.52
2018-09-24T19:44:01.858Z,102556.27
2018-09-24T19:47:11.631Z,102572.48
2018-09-24T19:50:21.344Z,102575.91
2018-09-24T19:53:30.665Z,102582.73
2018-09-24T19:56:39.971Z,102586.99
2018-09-24T19:59:49.298Z,102587.50
2018-09-24T20:02:58.955Z,102590.52
2018-09-24T20:06:08.575Z,102597.36
2018-09-24T20:09:17.982Z,102593.05
2018-09-24T20:12:27.274Z,102597.30
2018-09-24T20:15:36.634Z,102605.84
2018-09-24T20:18:45.942Z,102613.53
2018-09-24T20:21:55.161Z,102614.86
2018-09-24T20:25:04.539Z,102622.95
2018-09-24T20:28:13.802Z,102626.37
2018-09-24T20:31:23.194Z,102624.69
2018-09-24T20:34:32.574Z,102628.56
2018-09-24T20:37:42.003Z,102636.64
2018-09-24T20:40:51.437Z,102634.52
2018-09-24T20:44:00.874Z,102637.53
2018-09-24T20:47:10.191Z,102645.19
2018-09-24T20:50:19.715Z,102651.14
2018-09-24T20:53:28.914Z,102649.44
2018-09-24T20:56:38.331Z,102652.44
2018-09-24T20:59:47.760Z,102659.70
2018-09-24T21:02:56.983Z,102661.83
2018-09-24T21:06:06.272Z,102668.69
2018-09-24T21:09:15.639Z,102673.38
2018-09-24T21:12:24.858Z,102671.23
2018-09-24T21:15:34.282Z,102685.30
2018-09-24T21:18:43.639Z,102680.19
2018-09-24T21:21:52.842Z,102689.59
2018-09-24T21:25:02.160Z,102687.88
2018-09-24T21:28:11.831Z,102693.41
2018-09-24T21:31:21.368Z,102698.97
2018-09-24T21:34:30.708Z,102703.23
2018-09-24T21:37:39.995Z,102710.02
2018-09-24T21:40:49.410Z,102717.70
2018-09-24T21:43:58.694Z,102708.75
2018-09-24T21:47:07.993Z,102711.31
2018-09-24T21:50:17.252Z,102708.31
2018-09-24T21:53:26.527Z,102710.88
2018-09-24T21:56:35.890Z,102718.13
2018-09-24T21:59:45.141Z,102720.67
2018-09-24T22:02:54.563Z,102727.05
2018-09-24T22:06:04.126Z,102733.44
2018-09-24T22:09:14.314Z,102733.45
2018-09-24T22:12:23.475Z,102730.87
2018-09-24T22:15:32.836Z,102738.54
2018-09-24T22:18:42.223Z,102743.66
2018-09-24T22:21:51.450Z,102748.31
2018-09-24T22:25:00.832Z,102748.71
2018-09-24T22:28:10.187Z,102748.26
2018-09-24T22:31:19.417Z,102755.06
2018-09-24T22:34:28.786Z,102760.16
2018-09-24T22:37:38.119Z,102769.09
2018-09-24T22:40:47.407Z,102766.94
2018-09-24T22:43:56.979Z,102766.52
2018-09-24T22:47:06.387Z,102767.79
2018-09-24T22:50:16.061Z,102764.81
2018-09-24T22:53:25.387Z,102772.89
2018-09-24T22:56:34.923Z,102772.42
2018-09-24T22:59:44.169Z,102774.08
2018-09-24T23:02:53.381Z,102781.30
2018-09-24T23:06:02.881Z,102784.70
2018-09-24T23:09:14.222Z,102783.77
2018-09-24T23:12:23.542Z,102786.41
2018-09-24T23:15:32.778Z,102790.23
2018-09-24T23:18:41.990Z,102795.75
2018-09-24T23:21:51.447Z,102789.80
2018-09-24T23:25:00.889Z,102790.14
2018-09-24T23:28:10.278Z,102788.44
2018-09-24T23:31:19.563Z,102786.61
2018-09-24T23:34:29.005Z,102784.55
2018-09-24T23:37:38.350Z,102787.16
2018-09-24T23:40:47.514Z,102787.17
2018-09-24T23:43:56.861Z,102795.67
2018-09-24T23:47:06.052Z,102790.14
2018-09-24T23:50:15.288Z,102793.95
2018-09-24T23:53:24.491Z,102803.61
2018-09-24T23:56:34.354Z,102803.60
2018-09-24T23:59:43.565Z,102806.56
